Time;durP1;ratioP1;P1;durP2;ratioP2;P2;SDS_P1;SDS_P2;PMS_P1;PMS_P2;Temp;Humidity;BMP_temperature;BMP_pressure;BME280_temperature;BME280_humidity;BME280_pressure;Samples;Min_cycle;Max_cycle;Signal;HPM_P1;HPM_P2
2021/01/30 00:01:18;;;;;;;1.33;0.70;;;;;;;7.37;94.77;97377.16;5026247;28;103372;-74
2021/01/30 00:03:45;;;;;;;2.23;0.70;;;;;;;7.39;94.78;97377.88;5027956;27;103011;-74
2021/01/30 00:06:13;;;;;;;3.50;1.07;;;;;;;7.45;94.89;97373.91;5026918;28;107082;-74
2021/01/30 00:08:40;;;;;;;2.03;0.90;;;;;;;7.38;93.17;97375.38;5025875;28;103103;-75
2021/01/30 00:11:10;;;;;;;2.37;1.10;;;;;;;7.38;94.29;97389.31;5018354;28;103142;-74
2021/01/30 00:13:37;;;;;;;2.40;1.00;;;;;;;7.38;95.17;97389.31;5017851;28;103187;-74
2021/01/30 00:16:05;;;;;;;2.33;1.10;;;;;;;7.38;94.77;97391.13;5026409;28;104433;-74
2021/01/30 00:18:33;;;;;;;4.10;1.13;;;;;;;7.30;94.68;97396.97;5027915;28;103876;-74
2021/01/30 00:21:01;;;;;;;2.57;0.90;;;;;;;7.30;95.16;97391.72;5026909;27;103006;-74
2021/01/30 00:23:28;;;;;;;1.90;0.83;;;;;;;7.31;95.50;97393.41;5026582;28;104597;-75
2021/01/30 00:25:55;;;;;;;3.83;1.10;;;;;;;7.24;96.05;97386.16;5024953;28;110480;-74
2021/01/30 00:28:22;;;;;;;1.63;0.77;;;;;;;7.26;94.13;97385.06;5026907;27;103703;-74
2021/01/30 00:30:50;;;;;;;1.47;0.83;;;;;;;7.30;94.20;97391.72;5027791;28;102532;-74
2021/01/30 00:33:17;;;;;;;2.47;1.00;;;;;;;7.22;93.84;97388.88;5026052;28;102992;-74
2021/01/30 00:35:45;;;;;;;1.87;1.10;;;;;;;7.28;93.29;97392.81;5026813;27;104266;-74
2021/01/30 00:38:12;;;;;;;1.67;0.97;;;;;;;7.29;92.43;97394.50;5026986;27;103607;-74
2021/01/30 00:40:39;;;;;;;2.47;0.80;;;;;;;7.22;91.43;97394.13;5026444;28;102687;-74
2021/01/30 00:43:06;;;;;;;2.93;0.90;;;;;;;7.21;91.13;97391.63;5027398;28;102613;-74
2021/01/30 00:45:33;;;;;;;2.23;1.07;;;;;;;7.24;91.52;97400.09;5026481;28;103263;-74
2021/01/30 00:48:02;;;;;;;4.43;1.10;;;;;;;7.26;90.96;97395.56;5042281;27;103620;-75
2021/01/30 00:50:31;;;;;;;2.33;0.93;;;;;;;7.32;90.55;97391.63;5025894;27;102599;-74
2021/01/30 00:53:01;;;;;;;1.93;0.80;;;;;;;7.25;89.57;97383.38;5024271;28;102739;-74
2021/01/30 00:55:35;;;;;;;1.33;0.80;;;;;;;7.27;88.95;97391.97;5021802;28;106228;-75
2021/01/30 00:58:06;;;;;;;1.47;0.97;;;;;;;7.28;89.51;97393.66;5025872;28;105419;-74
2021/01/30 01:00:35;;;;;;;1.17;0.60;;;;;;;7.27;89.25;97380.66;5027536;28;103065;-74
2021/01/30 01:03:08;;;;;;;3.23;0.80;;;;;;;7.21;89.90;97386.38;5026033;28;103271;-74
2021/01/30 01:05:44;;;;;;;1.07;0.70;;;;;;;7.17;89.71;97377.91;5041110;27;105151;-74
2021/01/30 01:08:12;;;;;;;3.17;0.80;;;;;;;7.18;89.98;97376.97;5025757;27;109578;-75
2021/01/30 01:10:39;;;;;;;1.90;0.73;;;;;;;7.11;89.31;97375.75;5021766;27;103381;-74
2021/01/30 01:13:06;;;;;;;1.53;0.70;;;;;;;7.09;89.37;97385.56;5026287;28;104429;-74
2021/01/30 01:15:33;;;;;;;2.10;0.70;;;;;;;7.10;89.26;97387.25;5024293;28;104002;-75
2021/01/30 01:18:01;;;;;;;3.53;1.00;;;;;;;7.11;89.32;97385.44;5026027;28;104948;-74
2021/01/30 01:20:28;;;;;;;3.40;0.80;;;;;;;7.11;89.45;97391.50;5024308;28;102951;-74
2021/01/30 01:22:55;;;;;;;3.43;1.07;;;;;;;7.03;89.25;97386.03;5023770;28;103269;-74
2021/01/30 01:25:24;;;;;;;2.60;0.70;;;;;;;6.98;89.42;97388.19;5025768;28;105593;-75
2021/01/30 01:27:52;;;;;;;3.00;1.00;;;;;;;7.02;89.62;97394.03;5025921;28;103319;-74
2021/01/30 01:30:21;;;;;;;2.00;0.70;;;;;;;7.03;89.35;97391.28;5025504;27;103217;-74
2021/01/30 01:32:48;;;;;;;1.07;0.70;;;;;;;7.12;89.05;97393.19;5042420;27;102799;-74
2021/01/30 01:35:18;;;;;;;2.37;0.87;;;;;;;7.12;89.01;97385.31;5006137;28;105509;-74
2021/01/30 01:37:46;;;;;;;3.20;0.80;;;;;;;7.11;89.53;97391.50;5006013;28;105234;-74
2021/01/30 01:40:15;;;;;;;3.07;1.20;;;;;;;7.19;88.79;97399.63;5024810;28;102783;-74
2021/01/30 01:42:43;;;;;;;2.37;0.97;;;;;;;7.25;88.53;97407.03;5026325;28;102614;-74
2021/01/30 01:45:11;;;;;;;2.43;0.90;;;;;;;7.24;88.47;97407.97;5024878;28;104064;-74
2021/01/30 01:47:43;;;;;;;2.80;0.60;;;;;;;7.27;88.01;97402.47;5023747;28;104732;-74
2021/01/30 01:50:28;;;;;;;1.63;0.70;;;;;;;7.27;87.97;97401.66;5025948;28;103253;-74
2021/01/30 01:53:07;;;;;;;1.93;0.80;;;;;;;7.29;88.23;97405.00;5019414;28;103556;-75
2021/01/30 01:55:59;;;;;;;1.83;0.80;;;;;;;7.33;87.38;97401.16;5023229;28;104667;-74
2021/01/30 01:58:31;;;;;;;2.43;0.80;;;;;;;7.39;87.52;97398.88;5025974;28;103619;-74
2021/01/30 02:00:58;;;;;;;2.67;0.90;;;;;;;7.43;86.97;97413.47;5022085;27;104270;-74
2021/01/30 02:03:27;;;;;;;1.53;0.70;;;;;;;7.46;87.09;97407.13;5025191;28;102629;-74
2021/01/30 02:05:54;;;;;;;2.23;1.00;;;;;;;7.44;87.23;97401.97;5023150;28;104454;-74
2021/01/30 02:08:23;;;;;;;4.27;0.80;;;;;;;7.42;86.75;97395.16;5025099;28;104966;-74
2021/01/30 02:10:52;;;;;;;1.83;1.00;;;;;;;7.43;86.94;97386.34;5018323;27;102676;-74
2021/01/30 02:13:25;;;;;;;2.50;0.70;;;;;;;7.43;87.29;97395.06;5025926;28;103251;-74
2021/01/30 02:16:00;;;;;;;1.37;0.57;;;;;;;7.44;87.41;97399.34;5030838;27;104134;-74
2021/01/30 02:18:40;;;;;;;1.73;0.80;;;;;;;7.33;87.33;97391.47;5011849;27;103661;-74
2021/01/30 02:21:49;;;;;;;0.70;0.50;;;;;;;7.37;87.61;97386.81;5025226;28;103243;-74
2021/01/30 02:24:53;;;;;;;1.20;0.50;;;;;;;7.25;87.40;97378.13;5024477;28;102747;-74
2021/01/30 02:27:54;;;;;;;0.80;0.47;;;;;;;7.26;87.91;97379.81;5024558;28;103863;-74
2021/01/30 02:30:39;;;;;;;1.50;0.60;;;;;;;7.25;88.55;97370.25;5035905;27;104862;-73
2021/01/30 02:33:29;;;;;;;1.23;0.60;;;;;;;7.20;88.87;97372.41;5023999;27;102854;-75
2021/01/30 02:36:14;;;;;;;1.03;0.57;;;;;;;7.17;88.89;97375.28;5025574;28;103017;-74
2021/01/30 02:38:48;;;;;;;1.80;0.50;;;;;;;7.19;89.03;97381.22;5025188;27;103786;-74
2021/01/30 02:41:21;;;;;;;0.67;0.50;;;;;;;7.13;89.04;97375.66;5024727;28;103763;-74
2021/01/30 02:43:50;;;;;;;1.33;0.80;;;;;;;7.11;89.08;97370.50;5023700;28;102592;-75
2021/01/30 02:46:20;;;;;;;0.70;0.40;;;;;;;7.20;88.79;97374.19;5024399;28;103202;-75
2021/01/30 02:48:51;;;;;;;1.13;0.37;;;;;;;7.15;89.16;97373.72;5025056;28;103769;-75
2021/01/30 02:51:23;;;;;;;2.27;0.63;;;;;;;7.11;89.20;97386.25;5025510;28;103815;-75
2021/01/30 02:53:54;;;;;;;1.30;0.33;;;;;;;7.19;88.77;97381.22;5024148;28;102937;-75
2021/01/30 02:56:22;;;;;;;0.87;0.40;;;;;;;7.22;89.24;97382.78;5012800;28;102816;-73
2021/01/30 02:58:53;;;;;;;0.60;0.40;;;;;;;7.15;89.47;97371.94;5021752;28;103755;-75
2021/01/30 03:01:20;;;;;;;0.83;0.50;;;;;;;7.06;89.26;97371.81;5020676;27;103897;-75
2021/01/30 03:03:48;;;;;;;1.27;0.40;;;;;;;7.08;89.53;97369.91;5020461;28;102524;-74
2021/01/30 03:06:22;;;;;;;0.63;0.37;;;;;;;7.09;89.90;97363.72;5024860;28;102910;-75
2021/01/30 03:08:58;;;;;;;1.27;0.60;;;;;;;7.01;90.17;97353.81;5022874;28;105335;-74
2021/01/30 03:11:30;;;;;;;0.70;0.40;;;;;;;7.01;90.67;97364.31;5020869;28;104431;-73
2021/01/30 03:14:03;;;;;;;0.87;0.40;;;;;;;7.06;90.52;97361.31;5024499;28;103075;-75
2021/01/30 03:16:36;;;;;;;0.93;0.47;;;;;;;7.00;91.34;97362.63;5024478;28;103027;-74
2021/01/30 03:19:08;;;;;;;1.60;0.53;;;;;;;7.00;90.96;97363.47;5024775;27;103889;-74
2021/01/30 03:21:38;;;;;;;1.13;0.53;;;;;;;7.04;91.22;97368.50;5024744;28;104869;-74
2021/01/30 03:24:07;;;;;;;0.70;0.43;;;;;;;6.97;91.42;97360.25;5023882;28;103665;-74
2021/01/30 03:26:40;;;;;;;1.77;0.60;;;;;;;7.07;91.13;97357.75;5024152;28;104029;-74
2021/01/30 03:29:07;;;;;;;1.20;0.50;;;;;;;7.03;90.96;97362.41;5023957;28;104221;-74
2021/01/30 03:31:34;;;;;;;1.60;0.60;;;;;;;6.95;91.36;97359.56;5025919;27;103939;-74
2021/01/30 03:34:01;;;;;;;0.53;0.40;;;;;;;7.02;91.29;97359.91;5028495;28;102506;-74
2021/01/30 03:36:28;;;;;;;0.60;0.47;;;;;;;6.97;91.79;97362.88;5028311;28;104713;-74
2021/01/30 03:38:56;;;;;;;1.50;0.50;;;;;;;7.04;91.54;97358.00;5026685;28;105293;-73
2021/01/30 03:41:24;;;;;;;0.87;0.37;;;;;;;7.10;91.87;97355.72;5027490;28;105233;-74
2021/01/30 03:43:51;;;;;;;0.73;0.50;;;;;;;7.11;91.73;97354.75;5028344;28;102966;-74
2021/01/30 03:46:18;;;;;;;2.10;0.60;;;;;;;7.11;91.62;97360.00;5028587;28;103209;-74
2021/01/30 03:48:45;;;;;;;0.67;0.50;;;;;;;7.08;92.35;97355.00;5027136;27;103994;-74
2021/01/30 03:51:12;;;;;;;0.77;0.40;;;;;;;7.01;92.26;97359.06;5027225;28;103752;-74
2021/01/30 03:53:39;;;;;;;0.40;0.33;;;;;;;7.06;92.99;97351.66;5027670;28;103132;-74
2021/01/30 03:56:09;;;;;;;0.53;0.40;;;;;;;7.01;92.62;97345.94;5025494;28;104258;-74
2021/01/30 03:58:37;;;;;;;0.63;0.40;;;;;;;7.08;93.15;97352.38;5027512;28;104573;-74
2021/01/30 04:01:04;;;;;;;1.17;0.43;;;;;;;7.04;92.96;97345.69;5027473;28;103852;-75
2021/01/30 04:03:31;;;;;;;0.73;0.40;;;;;;;7.02;93.58;97342.34;5025714;28;103229;-74
2021/01/30 04:05:59;;;;;;;0.50;0.50;;;;;;;7.02;92.63;97334.47;5026656;28;103031;-74
2021/01/30 04:08:26;;;;;;;0.70;0.40;;;;;;;6.93;92.62;97332.59;5027442;28;104153;-74
2021/01/30 04:10:54;;;;;;;0.40;0.40;;;;;;;6.96;92.64;97334.97;5022299;27;103686;-74
2021/01/30 04:13:22;;;;;;;0.53;0.40;;;;;;;6.99;92.63;97329.44;5026740;28;103090;-74
2021/01/30 04:15:49;;;;;;;1.33;0.50;;;;;;;6.86;92.25;97324.34;5027163;28;103763;-74
2021/01/30 04:18:16;;;;;;;0.43;0.40;;;;;;;6.87;92.02;97322.56;5027124;28;104020;-74
2021/01/30 04:20:43;;;;;;;1.43;0.40;;;;;;;6.90;91.77;97309.19;5027201;28;103783;-74
2021/01/30 04:23:11;;;;;;;0.77;0.50;;;;;;;6.85;91.97;97309.53;5026992;28;102632;-74
2021/01/30 04:25:38;;;;;;;0.57;0.33;;;;;;;6.96;91.86;97312.16;5026825;28;103203;-74
2021/01/30 04:28:05;;;;;;;0.87;0.40;;;;;;;6.87;91.50;97301.56;5026936;28;104654;-75
2021/01/30 04:30:33;;;;;;;0.50;0.40;;;;;;;6.93;91.27;97303.72;5024908;28;105282;-75
2021/01/30 04:33:03;;;;;;;0.83;0.43;;;;;;;6.97;91.51;97299.88;5028145;28;103080;-74
2021/01/30 04:35:34;;;;;;;0.27;0.23;;;;;;;6.89;91.25;97310.16;5027587;28;102959;-75
2021/01/30 04:38:02;;;;;;;0.80;0.40;;;;;;;6.81;91.53;97305.50;5025495;27;103865;-74
2021/01/30 04:40:33;;;;;;;0.73;0.30;;;;;;;6.92;91.79;97302.88;5026346;28;103959;-75
2021/01/30 04:43:12;;;;;;;0.40;0.30;;;;;;;6.83;91.21;97297.50;5027111;27;102612;-74
2021/01/30 04:45:49;;;;;;;1.07;0.40;;;;;;;6.87;91.45;97304.19;5027151;27;102987;-74
2021/01/30 04:48:28;;;;;;;0.83;0.40;;;;;;;6.87;91.48;97296.31;5026657;28;106309;-75
2021/01/30 04:51:01;;;;;;;1.40;0.60;;;;;;;6.88;91.29;97290.09;5026337;28;104943;-76
2021/01/30 04:53:49;;;;;;;2.63;0.60;;;;;;;6.89;91.89;97292.59;5028821;27;103564;-76
2021/01/30 04:56:23;;;;;;;1.30;0.40;;;;;;;6.78;92.69;97283.91;5023564;28;102704;-76
2021/01/30 04:58:58;;;;;;;0.83;0.53;;;;;;;6.73;93.06;97280.81;5026698;27;103778;-75
2021/01/30 05:01:34;;;;;;;1.33;0.80;;;;;;;6.74;93.23;97274.59;5026318;28;104952;-75
2021/01/30 05:04:17;;;;;;;1.50;0.60;;;;;;;6.83;92.95;97277.34;5025834;28;102958;-75
2021/01/30 05:07:17;;;;;;;2.73;0.70;;;;;;;6.77;92.54;97272.56;5026265;27;103378;-73
2021/01/30 05:09:52;;;;;;;2.83;0.83;;;;;;;6.76;92.01;97270.09;5001389;27;104092;-73
2021/01/30 05:12:26;;;;;;;4.17;0.90;;;;;;;6.77;91.75;97271.72;5025738;28;104109;-73
2021/01/30 05:15:00;;;;;;;2.00;0.90;;;;;;;6.85;91.94;97269.31;5025938;28;103437;-73
2021/01/30 05:17:34;;;;;;;2.70;1.07;;;;;;;6.81;91.71;97266.13;5024521;28;104366;-75
2021/01/30 05:20:07;;;;;;;3.47;0.90;;;;;;;6.83;90.58;97271.25;5033000;27;103956;-73
2021/01/30 05:22:39;;;;;;;2.10;0.70;;;;;;;6.86;90.76;97268.38;5025710;28;109815;-73
2021/01/30 05:25:09;;;;;;;1.87;0.83;;;;;;;6.92;90.63;97263.50;5034051;27;102646;-73
2021/01/30 05:27:50;;;;;;;3.03;1.00;;;;;;;6.91;89.81;97253.09;5025362;28;104736;-73
2021/01/30 05:30:24;;;;;;;3.90;1.17;;;;;;;6.93;89.06;97261.69;5015836;28;104077;-73
2021/01/30 05:33:11;;;;;;;2.97;1.10;;;;;;;6.95;89.67;97252.75;5026194;27;103849;-73
2021/01/30 05:35:47;;;;;;;3.70;0.90;;;;;;;7.02;89.32;97249.63;5026267;28;102606;-73
2021/01/30 05:38:27;;;;;;;3.90;1.07;;;;;;;7.09;88.94;97251.63;5026166;28;102922;-73
2021/01/30 05:41:02;;;;;;;4.33;1.20;;;;;;;7.03;87.92;97249.50;5026240;28;103265;-76
2021/01/30 05:43:36;;;;;;;2.27;1.00;;;;;;;7.09;87.85;97253.41;5024769;28;104242;-75
2021/01/30 05:46:19;;;;;;;4.10;1.07;;;;;;;7.16;88.46;97252.78;5025400;28;103105;-75
2021/01/30 05:48:47;;;;;;;4.53;0.90;;;;;;;7.09;87.39;97250.78;5026253;27;103031;-75
2021/01/30 05:51:20;;;;;;;5.27;1.47;;;;;;;7.05;86.88;97244.94;5034108;27;103871;-75
2021/01/30 05:53:47;;;;;;;6.27;1.40;;;;;;;6.98;87.04;97255.13;5023446;28;103589;-74
2021/01/30 05:56:15;;;;;;;5.90;1.33;;;;;;;7.04;86.77;97245.91;5022551;28;103198;-75
2021/01/30 05:58:45;;;;;;;4.50;1.20;;;;;;;7.08;86.23;97247.31;5025426;27;102755;-75
2021/01/30 06:01:24;;;;;;;4.40;1.50;;;;;;;7.08;85.84;97249.94;5024333;27;104889;-75
2021/01/30 06:04:00;;;;;;;5.53;1.70;;;;;;;7.06;85.36;97241.38;5025656;27;103806;-74
2021/01/30 06:06:31;;;;;;;4.07;1.30;;;;;;;7.11;85.82;97239.19;5006421;28;103268;-73
2021/01/30 06:09:01;;;;;;;7.57;1.80;;;;;;;7.03;84.97;97241.63;5007474;28;102865;-73
2021/01/30 06:11:29;;;;;;;4.33;1.30;;;;;;;7.05;84.83;97234.44;5025358;28;104004;-72
2021/01/30 06:13:59;;;;;;;6.57;1.33;;;;;;;7.04;84.91;97232.78;5026436;28;105016;-73
2021/01/30 06:16:42;;;;;;;7.13;1.40;;;;;;;7.05;84.60;97228.34;5017170;28;103082;-76
2021/01/30 06:19:14;;;;;;;7.03;1.67;;;;;;;7.04;84.90;97235.41;5025243;28;103251;-74
2021/01/30 06:21:42;;;;;;;10.00;1.93;;;;;;;6.97;85.00;97232.44;5018740;27;104638;-75
2021/01/30 06:24:11;;;;;;;5.43;1.83;;;;;;;7.00;84.33;97241.84;5012398;27;105378;-81
2021/01/30 06:26:44;;;;;;;4.50;1.43;;;;;;;6.99;84.23;97229.69;5024955;28;103147;-74
2021/01/30 06:29:31;;;;;;;5.43;1.67;;;;;;;7.04;84.56;97230.16;5023918;28;102817;-77
2021/01/30 06:32:07;;;;;;;4.23;1.13;;;;;;;7.04;84.34;97224.91;5023414;27;103833;-75
2021/01/30 06:34:38;;;;;;;6.03;2.03;;;;;;;6.97;84.58;97223.72;5024873;27;103601;-78
2021/01/30 06:37:10;;;;;;;5.60;1.63;;;;;;;6.97;84.64;97226.34;5025307;28;102928;-70
2021/01/30 06:39:41;;;;;;;6.83;1.47;;;;;;;6.98;84.43;97223.63;5024134;28;103162;-73
2021/01/30 06:42:11;;;;;;;7.43;2.40;;;;;;;7.02;84.67;97224.19;5024225;28;103955;-71
2021/01/30 06:44:39;;;;;;;6.53;1.53;;;;;;;7.03;84.75;97219.78;5024954;28;103743;-73
2021/01/30 06:47:11;;;;;;;9.30;2.00;;;;;;;6.99;84.78;97221.81;5003951;28;103041;-70
2021/01/30 06:49:42;;;;;;;11.17;2.13;;;;;;;7.00;84.76;97223.47;5025158;28;103132;-71
2021/01/30 06:52:13;;;;;;;6.43;2.23;;;;;;;6.99;84.62;97227.88;5022825;28;104887;-70
2021/01/30 06:54:40;;;;;;;5.53;1.83;;;;;;;7.00;84.69;97226.09;5019536;28;103905;-71
2021/01/30 06:57:13;;;;;;;6.70;1.60;;;;;;;6.97;84.79;97223.72;5020463;28;102836;-71
2021/01/30 06:59:52;;;;;;;10.83;2.17;;;;;;;6.92;85.05;97225.91;5022306;28;102748;-70
2021/01/30 07:02:23;;;;;;;8.33;2.07;;;;;;;6.98;85.45;97222.78;5022528;27;104797;-70
2021/01/30 07:05:16;;;;;;;5.40;1.77;;;;;;;6.98;85.09;97214.91;5016560;28;105015;-72
2021/01/30 07:07:57;;;;;;;3.37;1.40;;;;;;;6.95;85.46;97213.38;5020481;27;102739;-71
2021/01/30 07:10:39;;;;;;;7.37;2.33;;;;;;;6.88;84.96;97208.72;5020011;28;104219;-71
2021/01/30 07:13:26;;;;;;;6.50;1.63;;;;;;;6.88;85.48;97206.09;5024436;28;105027;-72
2021/01/30 07:16:09;;;;;;;7.03;1.97;;;;;;;6.91;85.07;97208.47;5025211;28;102975;-71
2021/01/30 07:18:49;;;;;;;7.03;2.07;;;;;;;6.90;85.49;97204.19;4983620;28;104360;-71
2021/01/30 07:21:22;;;;;;;6.30;2.17;;;;;;;6.91;85.57;97211.09;4987128;28;103015;-71
2021/01/30 07:23:58;;;;;;;11.70;2.43;;;;;;;6.94;85.12;97216.94;4991708;28;103884;-71
2021/01/30 07:26:32;;;;;;;4.80;1.50;;;;;;;6.98;85.25;97207.03;4985854;28;103917;-70
2021/01/30 07:29:02;;;;;;;6.57;2.13;;;;;;;7.03;84.99;97196.97;4984333;28;103178;-70
2021/01/30 07:31:33;;;;;;;8.87;1.93;;;;;;;7.08;84.26;97194.81;4981003;28;103632;-81
2021/01/30 07:34:16;;;;;;;4.30;1.70;;;;;;;7.09;84.15;97193.84;4992197;28;103356;-76
2021/01/30 07:36:50;;;;;;;6.13;1.63;;;;;;;7.18;84.57;97182.59;4988080;28;105706;-75
2021/01/30 07:39:36;;;;;;;6.37;2.10;;;;;;;7.15;84.20;97188.09;4986148;28;103033;-75
2021/01/30 07:42:08;;;;;;;5.17;2.07;;;;;;;7.17;84.23;97185.34;4988030;28;102867;-75
2021/01/30 07:44:58;;;;;;;8.57;2.00;;;;;;;7.16;84.43;97179.25;4987488;28;104613;-77
2021/01/30 07:47:34;;;;;;;4.60;1.43;;;;;;;7.20;84.22;97175.41;4987686;28;103714;-74
2021/01/30 07:50:04;;;;;;;9.43;1.80;;;;;;;7.19;84.16;97175.53;4999212;28;103340;-76
2021/01/30 07:52:41;;;;;;;5.77;1.40;;;;;;;7.21;83.88;97171.84;4987494;28;103362;-78
2021/01/30 07:55:10;;;;;;;7.30;1.47;;;;;;;7.21;83.93;97174.47;4986737;28;103641;-76
2021/01/30 07:58:21;;;;;;;7.27;1.87;;;;;;;7.27;83.92;97167.88;4985619;28;104825;-74
2021/01/30 08:00:56;;;;;;;6.07;1.80;;;;;;;7.33;83.75;97175.22;4981477;28;103292;-73
2021/01/30 08:03:58;;;;;;;10.17;2.00;;;;;;;7.24;83.61;97166.31;5004221;28;103145;-74
2021/01/30 08:06:37;;;;;;;4.13;1.73;;;;;;;7.37;83.95;97169.59;4979507;28;103194;-74
2021/01/30 08:09:14;;;;;;;6.53;1.97;;;;;;;7.44;84.01;97168.13;4992151;28;103752;-74
2021/01/30 08:11:46;;;;;;;7.53;1.63;;;;;;;7.49;82.97;97159.88;4986991;28;103483;-73
2021/01/30 08:14:29;;;;;;;5.90;2.80;;;;;;;7.65;81.96;97157.59;4988203;28;102994;-73
2021/01/30 08:17:06;;;;;;;5.73;1.60;;;;;;;7.81;82.77;97157.13;4998064;28;104427;-81
2021/01/30 08:19:42;;;;;;;5.30;1.57;;;;;;;7.70;82.21;97160.66;5037568;27;103809;-77
2021/01/30 08:22:16;;;;;;;5.07;1.93;;;;;;;7.70;82.34;97157.22;5027499;28;103027;-78
2021/01/30 08:24:51;;;;;;;6.20;1.80;;;;;;;7.73;81.60;97154.31;5027041;28;102968;-76
2021/01/30 08:27:24;;;;;;;4.17;1.30;;;;;;;7.74;82.75;97153.38;5020783;27;104915;-77
2021/01/30 08:29:59;;;;;;;5.30;1.70;;;;;;;7.77;82.44;97163.63;5026125;28;104332;-84
2021/01/30 08:32:39;;;;;;;4.80;1.63;;;;;;;7.81;82.89;97151.88;5024203;28;102818;-79
2021/01/30 08:35:41;;;;;;;6.40;1.90;;;;;;;7.77;81.67;97158.38;5024359;28;102739;-75
2021/01/30 08:38:11;;;;;;;6.67;2.40;;;;;;;7.77;81.77;97155.75;4991313;27;103361;-77
2021/01/30 08:40:45;;;;;;;5.43;1.90;;;;;;;7.84;82.00;97149.81;5028136;28;103645;-75
2021/01/30 08:43:20;;;;;;;9.83;3.37;;;;;;;7.84;82.68;97148.97;5028170;27;102874;-76
2021/01/30 08:45:47;;;;;;;5.77;2.17;;;;;;;7.87;82.03;97149.56;5043955;27;103148;-77
2021/01/30 08:48:31;;;;;;;9.17;2.43;;;;;;;7.90;82.13;97143.19;5027169;28;104438;-76
2021/01/30 08:50:59;;;;;;;8.57;2.00;;;;;;;7.95;81.73;97141.00;5028978;27;104498;-75
2021/01/30 08:53:34;;;;;;;7.20;1.90;;;;;;;8.02;80.94;97144.78;5026885;27;102802;-75
2021/01/30 08:56:04;;;;;;;6.37;2.17;;;;;;;8.00;81.09;97138.84;5025997;28;102936;-79
2021/01/30 08:58:51;;;;;;;6.93;2.50;;;;;;;8.06;81.04;97146.16;5030003;27;106554;-79
2021/01/30 09:01:45;;;;;;;8.00;2.93;;;;;;;8.07;80.68;97151.31;5038034;27;103922;-77
2021/01/30 09:04:40;;;;;;;6.50;2.53;;;;;;;8.20;81.02;97156.31;5020672;27;103032;-77
2021/01/30 09:07:07;;;;;;;7.40;3.17;;;;;;;8.29;81.22;97149.47;5015130;27;103069;-77
2021/01/30 09:10:14;;;;;;;9.33;3.23;;;;;;;8.26;81.61;97147.91;5013336;28;103862;-77
2021/01/30 09:12:54;;;;;;;5.67;2.87;;;;;;;8.36;80.92;97145.34;5022923;28;103688;-81
2021/01/30 09:15:58;;;;;;;31.83;14.80;;;;;;;8.30;80.44;97148.50;5022958;28;103701;-76
2021/01/30 09:18:48;;;;;;;18.57;6.13;;;;;;;8.31;81.37;97140.47;5017106;28;103260;-76
2021/01/30 09:21:24;;;;;;;10.30;3.90;;;;;;;8.29;80.72;97139.78;5014107;27;103400;-77
2021/01/30 09:24:06;;;;;;;7.10;2.27;;;;;;;8.39;80.88;97131.94;5023374;27;103344;-78
2021/01/30 09:26:48;;;;;;;9.37;2.73;;;;;;;8.27;81.04;97133.84;5022255;27;103154;-81
2021/01/30 09:29:22;;;;;;;6.40;2.00;;;;;;;8.43;80.78;97128.88;5025587;27;102717;-76
2021/01/30 09:31:55;;;;;;;7.27;2.10;;;;;;;8.57;80.54;97130.28;5024146;28;104390;-78
2021/01/30 09:34:24;;;;;;;6.17;1.83;;;;;;;8.50;80.02;97116.03;5039761;27;104321;-73
2021/01/30 09:36:54;;;;;;;8.07;2.30;;;;;;;8.47;79.20;97119.75;5025805;28;102500;-78
2021/01/30 09:39:23;;;;;;;7.63;1.80;;;;;;;8.64;79.79;97119.09;5024478;28;102989;-75
2021/01/30 09:41:51;;;;;;;6.63;1.90;;;;;;;8.72;79.46;97121.03;5011895;28;103810;-74
2021/01/30 09:44:21;;;;;;;5.57;2.07;;;;;;;8.64;78.53;97121.72;5022111;28;103197;-76
2021/01/30 09:46:52;;;;;;;10.17;3.60;;;;;;;8.73;78.48;97120.03;5021544;28;103071;-76
2021/01/30 09:49:24;;;;;;;6.97;2.40;;;;;;;8.71;78.20;97116.72;5023533;28;103664;-75
2021/01/30 09:51:55;;;;;;;7.53;2.57;;;;;;;8.94;78.81;97119.94;5014591;28;103768;-74
2021/01/30 09:54:25;;;;;;;5.67;1.97;;;;;;;8.86;77.96;97111.91;5040218;27;103932;-73
2021/01/30 09:56:57;;;;;;;6.50;2.50;;;;;;;8.84;77.96;97114.69;5020126;27;103144;-74
2021/01/30 09:59:28;;;;;;;7.83;2.33;;;;;;;8.90;78.25;97118.56;5019651;28;103080;-78
2021/01/30 10:02:07;;;;;;;4.03;1.83;;;;;;;9.02;78.09;97117.44;5019717;28;104512;-74
2021/01/30 10:04:38;;;;;;;9.53;2.97;;;;;;;9.02;78.34;97120.06;5015437;28;105400;-79
2021/01/30 10:07:07;;;;;;;8.07;3.10;;;;;;;9.01;77.46;97113.97;5022612;28;102889;-74
2021/01/30 10:09:45;;;;;;;8.93;2.47;;;;;;;8.97;76.81;97109.13;5023348;28;103344;-77
2021/01/30 10:12:14;;;;;;;10.00;2.80;;;;;;;9.05;77.81;97111.88;5018511;28;103958;-79
2021/01/30 10:14:45;;;;;;;7.20;2.70;;;;;;;9.16;77.82;97109.09;5023414;27;103840;-80
2021/01/30 10:17:16;;;;;;;7.10;1.90;;;;;;;9.06;77.11;97108.28;5021669;28;105097;-81
2021/01/30 10:19:44;;;;;;;6.40;2.57;;;;;;;9.13;77.79;97110.22;5022461;28;103304;-78
2021/01/30 10:22:17;;;;;;;7.67;2.27;;;;;;;9.02;78.02;97102.47;5024044;28;104214;-79
2021/01/30 10:24:44;;;;;;;4.37;1.80;;;;;;;9.16;78.67;97104.69;5038837;27;106515;-81
2021/01/30 10:27:15;;;;;;;8.70;2.13;;;;;;;9.01;79.12;97099.97;5024653;27;102552;-83
2021/01/30 10:29:43;;;;;;;8.37;2.17;;;;;;;9.03;79.19;97098.03;5026181;28;102669;-83
2021/01/30 10:32:15;;;;;;;6.53;2.30;;;;;;;9.20;80.15;97100.81;5026149;28;109286;-79
2021/01/30 10:34:46;;;;;;;8.47;2.70;;;;;;;9.06;80.62;97092.50;5026293;27;103707;-80
2021/01/30 10:37:17;;;;;;;6.17;1.73;;;;;;;8.85;80.94;97091.78;5024409;28;103227;-82
2021/01/30 10:39:48;;;;;;;6.60;1.80;;;;;;;8.94;81.63;97090.97;5019195;28;103279;-84
2021/01/30 10:42:20;;;;;;;6.73;1.90;;;;;;;8.95;82.49;97082.94;5013105;27;103346;-77
2021/01/30 10:44:53;;;;;;;3.80;1.70;;;;;;;9.05;82.93;97086.38;5022694;28;103451;-78
2021/01/30 10:47:24;;;;;;;7.60;2.10;;;;;;;9.01;83.49;97077.09;5023617;28;103019;-79
2021/01/30 10:50:04;;;;;;;6.70;2.03;;;;;;;8.93;84.42;97079.59;5023775;28;103294;-77
2021/01/30 10:52:31;;;;;;;7.63;2.37;;;;;;;9.03;84.92;97082.22;5021590;28;106345;-79
2021/01/30 10:55:29;;;;;;;7.53;1.70;;;;;;;8.76;83.66;97071.56;5022906;28;103276;-80
2021/01/30 10:58:12;;;;;;;5.80;1.83;;;;;;;8.76;84.60;97079.47;5019309;28;103206;-78
2021/01/30 11:00:40;;;;;;;2.83;1.13;;;;;;;8.81;84.73;97074.63;5023970;28;103279;-79
2021/01/30 11:03:27;;;;;;;3.47;1.53;;;;;;;8.87;83.86;97076.69;5039626;27;113201;-79
2021/01/30 11:05:58;;;;;;;3.93;1.17;;;;;;;8.94;84.25;97078.63;5038815;27;106844;-78
2021/01/30 11:08:30;;;;;;;3.30;1.40;;;;;;;8.82;84.24;97069.19;5013296;28;103232;-78
2021/01/30 11:11:04;;;;;;;4.53;1.77;;;;;;;8.93;84.29;97073.47;5015389;28;103290;-78
2021/01/30 11:13:38;;;;;;;4.27;1.40;;;;;;;8.50;85.64;97071.28;5021891;28;105827;-78
2021/01/30 11:16:14;;;;;;;3.13;1.17;;;;;;;8.72;86.01;97074.50;5021102;28;110887;-76
2021/01/30 11:18:47;;;;;;;3.13;1.30;;;;;;;8.81;86.26;97066.72;5022466;28;103004;-79
2021/01/30 11:21:31;;;;;;;6.90;1.20;;;;;;;8.84;86.76;97064.66;5014489;28;103330;-82
2021/01/30 11:24:15;;;;;;;3.27;1.60;;;;;;;8.74;87.32;97066.44;5020579;27;103703;-83
2021/01/30 11:26:44;;;;;;;4.67;1.60;;;;;;;8.70;87.60;97050.06;5020962;28;105494;-79
2021/01/30 11:29:42;;;;;;;3.17;1.30;;;;;;;8.77;87.44;97044.25;5022694;27;103146;-80
2021/01/30 11:32:21;;;;;;;4.73;1.50;;;;;;;8.68;87.68;97040.66;5010316;27;103334;-81
2021/01/30 11:34:57;;;;;;;3.93;1.53;;;;;;;8.79;87.95;97037.03;5017548;28;103892;-79
2021/01/30 11:37:28;;;;;;;5.03;1.43;;;;;;;8.98;87.41;97037.06;5023086;28;103810;-80
2021/01/30 11:40:09;;;;;;;5.23;1.33;;;;;;;9.00;87.38;97035.09;5027572;28;104254;-77
2021/01/30 11:42:38;;;;;;;4.53;1.33;;;;;;;8.91;87.71;97025.41;5030207;28;103177;-80
2021/01/30 11:45:10;;;;;;;3.40;1.30;;;;;;;9.07;87.93;97028.28;5028154;28;104298;-83
2021/01/30 11:47:40;;;;;;;2.77;0.80;;;;;;;9.14;88.36;97017.06;5030845;28;103050;-81
2021/01/30 11:50:10;;;;;;;3.80;1.57;;;;;;;9.15;86.94;97012.63;5031563;28;102597;-85
2021/01/30 11:52:38;;;;;;;3.27;1.27;;;;;;;8.96;87.44;97007.38;5049689;27;102880;-90
2021/01/30 11:55:06;;;;;;;3.17;1.30;;;;;;;9.24;87.64;96998.56;5027239;28;104010;-88
2021/01/30 11:57:34;;;;;;;4.50;1.10;;;;;;;9.22;86.50;96992.63;5030724;28;103476;-89
2021/01/30 12:00:02;;;;;;;3.13;1.40;;;;;;;9.22;87.00;96993.44;4975869;27;103541;-94
2021/01/30 12:02:34;;;;;;;3.70;1.23;;;;;;;9.20;87.61;96986.66;5014308;27;103082;-87
2021/01/30 12:05:03;;;;;;;4.30;1.00;;;;;;;9.19;87.05;96982.34;5009259;28;104355;-89